»·PEaware :: N7027G KSBA-KBUR

N7027G :: KSBA-KBUR

FLIGHT INFORMATION

Flight Status: Arrived
Operator: Privately registered:
United States
More flights under this callsign
Pilot: Curtis W. (20235)
Aircraft: CESSNA 172 SKYHAWK
(C172)
More flights by this aircraft type
Origin: KSBA Santa Barbara Mun
United States
Destination: KBUR Bob Hope-Burbank
United States
More flights between these airports :: More routes between these airports
Route: +
File this flight plan on PilotEdge
Remarks: CAT8
Altitude:
(Current/Filed)
7,500ft
Speed:
(Current/Filed)
0kts
Departed: 03-Sep-18 06:11 PM
Arrived: 03-Sep-18 06:56 PM
Distance/Time
Traveled:
74nm/0:45
Distance/Time
To Go:
Arrived

Flight Plot

Page will automatically refresh every two minutes.


Map Options




Map Legend


Flown Route
Filed Route
Departure Airport
Arrival Airport
Navaid (VOR, NDB)
Fix

Horizontal Profiles

Position Reports

Time Latitude Longitude Heading Altitude Ground
Speed
03-Sep-18 17:23 34.422664 -119.835593 340 17ft 0kts
03-Sep-18 17:24 34.422664 -119.835593 340 17ft 0kts
03-Sep-18 17:25 34.422664 -119.835593 340 17ft 0kts
03-Sep-18 17:26 34.422664 -119.835593 340 17ft 0kts
03-Sep-18 17:27 34.422664 -119.835593 340 17ft 0kts
03-Sep-18 17:28 34.422664 -119.835593 340 17ft 0kts
03-Sep-18 17:29 34.422664 -119.835593 340 17ft 0kts
03-Sep-18 17:30 34.422664 -119.835593 340 17ft 0kts
03-Sep-18 17:31 34.422664 -119.835593 340 17ft 0kts
03-Sep-18 17:32 34.422664 -119.835593 340 17ft 0kts
03-Sep-18 17:33 34.422664 -119.835593 340 17ft 0kts
03-Sep-18 17:34 34.422664 -119.835593 340 17ft 0kts
03-Sep-18 17:35 34.422664 -119.835593 340 17ft 0kts
03-Sep-18 17:36 34.422664 -119.835593 340 17ft 0kts
03-Sep-18 17:37 34.422664 -119.835593 340 17ft 0kts
03-Sep-18 17:38 34.422664 -119.835593 340 17ft 0kts
03-Sep-18 17:39 34.422664 -119.835593 340 17ft 0kts
03-Sep-18 17:40 34.422664 -119.835593 340 17ft 0kts
03-Sep-18 17:41 34.422664 -119.835593 340 17ft 0kts
03-Sep-18 17:42 34.422664 -119.835593 340 17ft 0kts
03-Sep-18 17:43 34.422664 -119.835593 340 17ft 0kts
03-Sep-18 17:44 34.422664 -119.835593 340 17ft 0kts
03-Sep-18 17:45 34.422664 -119.835593 340 17ft 0kts
03-Sep-18 17:46 34.422664 -119.835593 340 17ft 0kts
03-Sep-18 17:47 34.422664 -119.835593 340 17ft 0kts
03-Sep-18 17:48 34.422664 -119.835593 340 17ft 0kts
03-Sep-18 17:49 34.422664 -119.835593 340 17ft 0kts
03-Sep-18 17:50 34.422664 -119.835593 340 17ft 0kts
03-Sep-18 17:51 34.422664 -119.835593 340 17ft 0kts
03-Sep-18 17:52 34.422664 -119.835593 340 17ft 0kts
03-Sep-18 17:53 34.422664 -119.835593 340 17ft 0kts
03-Sep-18 17:54 34.422664 -119.835593 340 17ft 0kts
03-Sep-18 17:55 34.422664 -119.835593 340 17ft 0kts
03-Sep-18 17:56 34.422664 -119.835593 340 17ft 0kts
03-Sep-18 17:57 34.422664 -119.835593 340 17ft 0kts
03-Sep-18 17:58 34.422664 -119.835593 340 17ft 0kts
03-Sep-18 17:59 34.422664 -119.835593 340 17ft 0kts
03-Sep-18 18:00 34.422664 -119.835593 340 17ft 0kts
03-Sep-18 18:01 34.422664 -119.835593 340 17ft 0kts
03-Sep-18 18:02 34.422664 -119.835593 340 17ft 0kts
03-Sep-18 18:03 34.422664 -119.835593 340 17ft 0kts
03-Sep-18 18:04 34.422664 -119.835593 340 17ft 0kts
03-Sep-18 18:05 34.422664 -119.835593 340 17ft 0kts
03-Sep-18 18:06 34.422664 -119.835593 340 17ft 0kts
03-Sep-18 18:07 34.422664 -119.835593 340 17ft 0kts
03-Sep-18 18:08 34.422664 -119.835593 340 17ft 0kts
03-Sep-18 18:09 34.423083 -119.837032 303 17ft 11kts
03-Sep-18 18:10 34.426757 -119.836335 90 17ft 14kts
03-Sep-18 18:11 34.427091 -119.834616 356 17ft 0kts
03-Sep-18 18:12 34.427746 -119.842289 268 97ft 82kts
03-Sep-18 18:13 34.426937 -119.870277 265 1124ft 86kts
03-Sep-18 18:14 34.424725 -119.902716 267 1645ft 98kts
03-Sep-18 18:15 34.408604 -119.907160 122 2518ft 96kts
03-Sep-18 18:16 34.403821 -119.876634 89 3379ft 93kts
03-Sep-18 18:17 34.401877 -119.847238 100 4289ft 86kts
03-Sep-18 18:18 34.396873 -119.817496 99 5137ft 89kts
03-Sep-18 18:20 34.392476 -119.788751 99 6001ft 86kts
03-Sep-18 18:21 34.387924 -119.758936 99 6728ft 93kts
03-Sep-18 18:22 34.382542 -119.727302 99 7327ft 104kts
03-Sep-18 18:23 34.376887 -119.690705 100 7491ft 114kts
03-Sep-18 18:24 34.370902 -119.652060 100 7491ft 118kts
03-Sep-18 18:25 34.364881 -119.613015 100 7491ft 118kts
03-Sep-18 18:26 34.358869 -119.573850 99 7491ft 118kts
03-Sep-18 18:27 34.352898 -119.534758 99 7491ft 118kts
03-Sep-18 18:28 34.346948 -119.495613 99 7491ft 118kts
03-Sep-18 18:29 34.341028 -119.456472 99 7491ft 118kts
03-Sep-18 18:30 34.335136 -119.417329 99 7491ft 118kts
03-Sep-18 18:31 34.329390 -119.378930 99 7564ft 117kts
03-Sep-18 18:32 34.323698 -119.340729 100 7564ft 118kts
03-Sep-18 18:33 34.318010 -119.302371 100 7564ft 119kts
03-Sep-18 18:34 34.312205 -119.263031 99 7564ft 119kts
03-Sep-18 18:35 34.306413 -119.223586 99 7564ft 119kts
03-Sep-18 18:36 34.300669 -119.184266 99 7564ft 119kts
03-Sep-18 18:37 34.294946 -119.144892 99 7564ft 119kts
03-Sep-18 18:38 34.289258 -119.105556 99 7564ft 119kts
03-Sep-18 18:39 34.283579 -119.066081 99 7564ft 119kts
03-Sep-18 18:40 34.277948 -119.026739 99 7564ft 119kts
03-Sep-18 18:41 34.272332 -118.987300 99 7564ft 119kts
03-Sep-18 18:42 34.266313 -118.947976 100 7564ft 119kts
03-Sep-18 18:43 34.260199 -118.908755 100 7564ft 119kts
03-Sep-18 18:44 34.254166 -118.869859 100 7582ft 118kts
03-Sep-18 18:45 34.248103 -118.830584 100 7582ft 119kts
03-Sep-18 18:46 34.242074 -118.791344 100 7582ft 119kts
03-Sep-18 18:47 34.235591 -118.749039 100 7102ft 133kts
03-Sep-18 18:48 34.228848 -118.704886 100 6602ft 134kts
03-Sep-18 18:49 34.221399 -118.660460 104 6027ft 138kts
03-Sep-18 18:50 34.211160 -118.615401 104 5326ft 139kts
03-Sep-18 18:51 34.202036 -118.574702 103 4676ft 120kts
03-Sep-18 18:52 34.194937 -118.538491 102 4234ft 103kts
03-Sep-18 18:53 34.190632 -118.501888 89 3939ft 115kts
03-Sep-18 18:54 34.193485 -118.460992 74 3582ft 138kts
03-Sep-18 18:55 34.199178 -118.416615 90 2396ft 104kts
03-Sep-18 18:56 34.198234 -118.389699 91 1759ft 70kts
03-Sep-18 18:57 34.197890 -118.367095 90 788ft 51kts
03-Sep-18 18:58 34.198720 -118.364614 353 781ft 11kts
03-Sep-18 18:59 34.199962 -118.366050 198 781ft 0kts
03-Sep-18 19:00 34.199960 -118.366052 204 781ft 0kts
03-Sep-18 19:01 34.196339 -118.367564 358 781ft 0kts
03-Sep-18 19:02 34.196339 -118.367564 358 781ft 0kts
03-Sep-18 19:03 34.196339 -118.367564 358 781ft 0kts
03-Sep-18 19:04 34.196339 -118.367564 358 781ft 0kts
03-Sep-18 19:05 34.196339 -118.367564 358 781ft 0kts
03-Sep-18 19:06 34.196339 -118.367564 358 781ft 0kts
03-Sep-18 19:07 34.196339 -118.367564 358 781ft 0kts
03-Sep-18 19:08 34.196339 -118.367564 358 781ft 0kts
03-Sep-18 19:09 34.196339 -118.367564 358 781ft 0kts
03-Sep-18 19:10 34.196339 -118.367564 358 781ft 0kts
03-Sep-18 19:11 34.196339 -118.367564 358 781ft 0kts
03-Sep-18 19:12 34.196339 -118.367564 358 781ft 0kts

Navigation Log

Ident Type
1. KSBA Airport
2. KBUR Airport